Terminal Aerodrome Forecast
Issued by NWS Jackson, MS

Home | Current Version | Previous Version | Text Only | Print | Product List | Glossary On
Versions: 1 2 3 4 5 6 7 8 9 10 11 12
000
FTUS44 KJAN 271120
TAFGWO
TAF
KGWO 271120Z 2712/2812 16005KT P6SM -SHRA VCTS BKN007 BKN015
      OVC025CB
     FM271700 19006KT 6SM -TSRA BKN035 BKN050CB
     FM272300 20007KT P6SM SCT025 BKN050
     FM280800 19005KT P6SM BKN007 OVC015=

USA.gov is the U.S. government's official web portal to all federal, state and local government web resources and services.